Hilltop, Illinois
Current Conditions -  °F | °C
As of 10:56 AM on Friday 28 Nov 2014 (Local Time) from KBMI Reporting Station
Clear Clear  
Wind Chill: 19°   Ceiling: Unl
Heat Index: 32°   Visibility: 10mi
Dew Point: 27°   Wind: 23mph
Humidity: 82%   Direction: 170°S
Pressure: 30.13"   Gusts: 30mph
Location:  40.6191°N, 88.8038°W
Report Text: KBMI 281656Z 17020G26KT 10SM CLR 00/M03 A3013 RMK AO2 T00001027 PK WND 17027/1642 PRESFR SLP225
Loading
Personal Weather Stations






























Interactive Weather Map New forecast layout! Learn more

10-Day Weather Forecast

Advertisements
Track Severe Weather on mobile